createdAt,value
2022-08-16T00:00:39.548Z,22.03
2022-08-16T00:03:07.385Z,22.09
2022-08-16T00:05:48.253Z,22.05
2022-08-16T00:08:35.777Z,22.05
2022-08-16T00:11:04.839Z,21.97
2022-08-16T00:13:33.690Z,21.95
2022-08-16T00:17:01.303Z,21.95
2022-08-16T00:18:55.506Z,21.94
2022-08-16T00:21:23.310Z,21.95
2022-08-16T00:23:50.003Z,21.86
2022-08-16T00:26:34.835Z,21.89
2022-08-16T00:29:04.758Z,21.83
2022-08-16T00:31:58.991Z,21.69
2022-08-16T00:34:22.597Z,21.76
2022-08-16T00:37:09.365Z,21.73
2022-08-16T00:39:36.121Z,21.72
2022-08-16T00:42:03.207Z,21.70
2022-08-16T00:44:32.608Z,21.67
2022-08-16T00:47:06.478Z,21.76
2022-08-16T00:49:39.416Z,21.71
2022-08-16T00:52:29.759Z,21.78
2022-08-16T00:54:59.698Z,21.66
2022-08-16T00:57:27.523Z,21.66
2022-08-16T01:00:19.985Z,21.69
2022-08-16T01:02:51.020Z,21.68
2022-08-16T01:05:18.982Z,21.70
2022-08-16T01:07:53.238Z,21.67
2022-08-16T01:10:32.932Z,21.50
2022-08-16T01:13:12.215Z,21.55
2022-08-16T01:15:45.647Z,21.58
2022-08-16T01:18:40.558Z,21.59
2022-08-16T01:21:33.826Z,21.36
2022-08-16T01:24:52.613Z,21.62
2022-08-16T01:27:08.513Z,21.36
2022-08-16T01:29:58.211Z,21.31
2022-08-16T01:32:33.472Z,21.18
2022-08-16T01:35:30.594Z,21.06
2022-08-16T01:38:25.923Z,21.15
2022-08-16T01:41:04.834Z,21.19
2022-08-16T01:43:34.674Z,21.23
2022-08-16T01:46:30.103Z,21.25
2022-08-16T01:53:26.631Z,21.15
2022-08-16T01:56:03.755Z,21.19
2022-08-16T01:58:33.346Z,21.13
2022-08-16T02:01:00.525Z,21.17
2022-08-16T02:03:29.584Z,21.13
2022-08-16T02:05:56.391Z,21.13
2022-08-16T02:08:33.524Z,21.08
2022-08-16T02:11:04.757Z,21.01
2022-08-16T02:13:33.107Z,21.03
2022-08-16T02:16:01.598Z,21.05
2022-08-16T02:18:28.775Z,21.03
2022-08-16T02:20:59.548Z,21.02
2022-08-16T02:23:26.485Z,20.97
2022-08-16T02:25:56.532Z,20.89
2022-08-16T02:28:26.189Z,20.96
2022-08-16T02:30:55.234Z,20.91
2022-08-16T02:33:24.479Z,20.91
2022-08-16T02:35:55.191Z,20.92
2022-08-16T02:38:29.043Z,20.87
2022-08-16T02:41:00.819Z,20.84
2022-08-16T02:43:33.217Z,20.84
2022-08-16T02:46:07.410Z,20.88
2022-08-16T02:48:38.468Z,20.90
2022-08-16T02:51:10.661Z,20.78
2022-08-16T02:53:44.639Z,20.67
2022-08-16T02:56:16.912Z,20.64
2022-08-16T02:58:45.431Z,20.67
2022-08-16T03:01:23.990Z,20.65
2022-08-16T03:04:41.057Z,20.63
2022-08-16T03:06:43.165Z,20.65
2022-08-16T03:09:20.178Z,20.56
2022-08-16T03:11:51.699Z,20.57
2022-08-16T03:14:21.425Z,20.64
2022-08-16T03:16:59.693Z,20.55
2022-08-16T03:19:46.828Z,20.52
2022-08-16T03:22:28.936Z,20.44
2022-08-16T03:25:07.669Z,20.42
2022-08-16T03:27:36.622Z,20.46
2022-08-16T03:30:21.594Z,20.51
2022-08-16T03:33:04.315Z,20.58
2022-08-16T03:35:40.132Z,20.44
2022-08-16T03:38:34.017Z,20.41
2022-08-16T03:41:14.386Z,20.34
2022-08-16T03:43:55.641Z,20.35
2022-08-16T03:46:47.217Z,20.44
2022-08-16T03:49:14.506Z,20.41
2022-08-16T03:51:44.512Z,20.31
2022-08-16T03:54:18.836Z,20.33
2022-08-16T03:56:56.834Z,20.37
2022-08-16T03:59:25.091Z,20.30
2022-08-16T04:01:53.773Z,20.28
2022-08-16T04:04:32.285Z,20.25
2022-08-16T04:07:00.467Z,20.29
2022-08-16T04:09:35.472Z,20.26
2022-08-16T04:12:11.040Z,20.29
2022-08-16T04:14:54.408Z,20.36
2022-08-16T04:17:21.942Z,20.36
2022-08-16T04:19:51.622Z,20.36
2022-08-16T04:22:28.151Z,20.12
2022-08-16T04:25:01.852Z,20.20
2022-08-16T04:27:35.221Z,20.15
2022-08-16T04:30:04.311Z,20.23
2022-08-16T04:32:42.702Z,20.12
2022-08-16T04:35:18.187Z,20.18
2022-08-16T04:37:48.156Z,20.25
2022-08-16T04:40:25.430Z,20.30
2022-08-16T04:42:55.618Z,20.26
2022-08-16T04:45:36.340Z,20.24
2022-08-16T04:48:10.314Z,20.28
2022-08-16T04:50:50.393Z,20.34
2022-08-16T04:53:20.656Z,20.33
2022-08-16T04:55:53.338Z,20.33
2022-08-16T04:58:44.781Z,20.28
2022-08-16T05:01:17.642Z,20.37
2022-08-16T05:04:00.522Z,20.47
2022-08-16T05:06:42.055Z,20.51
2022-08-16T05:09:18.780Z,20.47
2022-08-16T05:11:57.456Z,20.43
2022-08-16T05:14:45.618Z,20.54
2022-08-16T05:17:17.287Z,20.52
2022-08-16T05:19:46.756Z,20.47
2022-08-16T05:22:30.100Z,20.52
2022-08-16T05:25:08.677Z,20.60
2022-08-16T05:27:43.128Z,20.62
2022-08-16T05:30:34.792Z,20.58
2022-08-16T05:33:00.967Z,20.67
2022-08-16T05:35:28.382Z,20.62
2022-08-16T05:38:32.665Z,20.71
2022-08-16T05:41:09.546Z,20.73
2022-08-16T05:43:43.693Z,20.73
2022-08-16T05:46:29.564Z,20.67
2022-08-16T05:49:08.692Z,20.66
2022-08-16T05:51:38.754Z,20.79
2022-08-16T05:54:11.216Z,20.72
2022-08-16T05:56:41.032Z,20.74
2022-08-16T05:59:10.664Z,20.79
2022-08-16T06:01:39.334Z,20.80
2022-08-16T06:04:13.574Z,20.83
2022-08-16T06:06:57.840Z,20.74
2022-08-16T06:09:42.639Z,20.87
2022-08-16T06:12:26.378Z,20.84
2022-08-16T06:14:59.181Z,20.93
2022-08-16T06:17:42.609Z,20.99
2022-08-16T06:20:23.158Z,21.06
2022-08-16T06:22:58.581Z,21.29
2022-08-16T06:25:39.629Z,21.23
2022-08-16T06:28:16.610Z,21.23
2022-08-16T06:30:45.162Z,21.25
2022-08-16T06:33:22.155Z,21.26
2022-08-16T06:35:55.097Z,21.24
2022-08-16T06:38:32.935Z,21.33
2022-08-16T06:41:14.066Z,21.22
2022-08-16T06:43:43.852Z,21.30
2022-08-16T06:46:39.712Z,21.15
2022-08-16T06:49:14.785Z,21.54
2022-08-16T06:52:58.137Z,21.27
2022-08-16T06:54:56.375Z,21.61
2022-08-16T06:57:23.659Z,21.76
2022-08-16T06:59:53.301Z,21.70
2022-08-16T07:02:36.099Z,21.58
2022-08-16T07:05:18.240Z,21.68
2022-08-16T07:07:59.292Z,21.72
2022-08-16T07:10:27.982Z,21.94
2022-08-16T07:14:00.660Z,21.94
2022-08-16T07:16:14.391Z,22.01
2022-08-16T07:19:10.684Z,21.73
2022-08-16T07:25:54.556Z,21.96
2022-08-16T07:28:46.362Z,21.85
2022-08-16T07:31:14.320Z,22.05
2022-08-16T07:33:51.236Z,22.18
2022-08-16T07:36:23.315Z,22.42
2022-08-16T07:38:52.415Z,22.45
2022-08-16T07:41:20.144Z,22.52
2022-08-16T07:43:52.356Z,22.59
2022-08-16T07:46:39.437Z,22.62
2022-08-16T07:49:13.622Z,22.67
2022-08-16T07:51:41.509Z,22.67
2022-08-16T07:54:16.937Z,22.76
2022-08-16T07:56:49.338Z,22.83
2022-08-16T07:59:16.248Z,22.85
2022-08-16T08:01:43.476Z,22.91
2022-08-16T08:04:13.969Z,22.96
2022-08-16T08:06:44.009Z,23.01
2022-08-16T08:09:14.479Z,23.04
2022-08-16T08:11:59.745Z,23.09
2022-08-16T08:14:32.708Z,23.14
2022-08-16T08:17:08.582Z,23.12
2022-08-16T08:24:15.476Z,23.25
2022-08-16T08:26:43.381Z,23.32
2022-08-16T08:29:12.185Z,23.34
2022-08-16T08:31:42.212Z,23.35
2022-08-16T08:34:17.364Z,23.30
2022-08-16T08:36:45.896Z,23.32
2022-08-16T08:39:34.345Z,23.35
2022-08-16T08:42:26.634Z,23.39
2022-08-16T08:44:55.158Z,23.43
2022-08-16T08:47:24.678Z,23.50
2022-08-16T08:49:55.541Z,23.52
2022-08-16T08:52:34.801Z,23.53
2022-08-16T08:55:09.498Z,23.60
2022-08-16T08:57:43.066Z,23.67
2022-08-16T09:00:26.779Z,23.74
2022-08-16T09:02:57.900Z,23.76
2022-08-16T09:05:35.561Z,23.89
2022-08-16T09:08:06.024Z,23.90
2022-08-16T09:10:59.258Z,23.91
2022-08-16T09:13:32.849Z,23.90
2022-08-16T09:16:02.059Z,23.90
2022-08-16T09:18:35.885Z,23.91
2022-08-16T09:21:07.063Z,23.90
2022-08-16T09:24:09.811Z,23.81
2022-08-16T09:26:45.714Z,23.91
2022-08-16T09:29:23.922Z,23.97
2022-08-16T09:32:07.908Z,23.94
2022-08-16T09:34:35.226Z,23.97
2022-08-16T09:37:17.767Z,23.97
2022-08-16T09:39:50.449Z,23.98
2022-08-16T09:42:19.030Z,24.09
2022-08-16T09:45:10.809Z,24.14
2022-08-16T09:47:57.039Z,24.20
2022-08-16T09:50:26.766Z,24.23
2022-08-16T09:53:05.756Z,24.23
2022-08-16T09:55:33.835Z,24.25
2022-08-16T09:58:41.779Z,24.25
2022-08-16T10:01:01.003Z,24.25
2022-08-16T10:03:30.412Z,24.26
2022-08-16T10:05:57.606Z,24.35
2022-08-16T10:08:26.274Z,24.41
2022-08-16T10:11:12.570Z,24.45
2022-08-16T10:13:41.414Z,24.46
2022-08-16T10:19:01.512Z,24.45
2022-08-16T10:21:29.078Z,24.52
2022-08-16T10:23:58.670Z,24.56
2022-08-16T10:27:20.323Z,24.58
2022-08-16T10:29:12.094Z,24.63
2022-08-16T10:31:53.250Z,24.69
2022-08-16T10:34:32.058Z,24.76
2022-08-16T10:37:35.779Z,24.73
2022-08-16T10:40:29.378Z,24.84
2022-08-16T10:43:00.006Z,24.92
2022-08-16T10:45:28.778Z,24.96
2022-08-16T10:48:06.353Z,25.02
2022-08-16T10:55:44.742Z,25.10
2022-08-16T10:58:17.095Z,25.14
2022-08-16T11:00:45.980Z,25.14
2022-08-16T11:06:06.284Z,25.16
2022-08-16T11:08:41.902Z,25.20
2022-08-16T11:11:19.108Z,25.22
2022-08-16T11:14:10.885Z,25.25
2022-08-16T11:19:22.816Z,25.28
2022-08-16T11:24:44.573Z,25.37
2022-08-16T11:27:23.921Z,25.37
2022-08-16T11:29:55.218Z,25.43
2022-08-16T11:32:31.864Z,25.48
2022-08-16T11:35:14.062Z,25.50
2022-08-16T11:38:46.679Z,25.46
2022-08-16T11:40:52.458Z,25.52
2022-08-16T11:43:22.841Z,25.58
2022-08-16T11:45:50.698Z,25.61
2022-08-16T11:48:24.725Z,25.59
2022-08-16T11:50:52.820Z,25.57
2022-08-16T11:53:22.035Z,25.56
2022-08-16T11:56:40.077Z,25.46
2022-08-16T11:59:09.866Z,25.53
2022-08-16T12:01:44.198Z,25.59
2022-08-16T12:04:23.031Z,25.61
2022-08-16T12:06:50.298Z,25.63
2022-08-16T12:09:20.551Z,25.59
2022-08-16T12:11:53.234Z,25.58
2022-08-16T12:14:22.826Z,25.53
2022-08-16T12:16:55.564Z,25.52
2022-08-16T12:19:33.874Z,25.53
2022-08-16T12:22:05.591Z,25.55
2022-08-16T12:24:52.006Z,25.53
2022-08-16T12:27:23.098Z,25.59
2022-08-16T12:29:54.261Z,25.62
2022-08-16T12:33:16.207Z,25.49
2022-08-16T12:35:57.821Z,25.52
2022-08-16T12:39:20.319Z,25.43
2022-08-16T12:41:50.022Z,25.49
2022-08-16T12:44:43.107Z,25.38
2022-08-16T12:47:29.558Z,25.31
2022-08-16T12:49:58.634Z,25.43
2022-08-16T12:52:33.484Z,25.50
2022-08-16T12:55:02.032Z,25.51
2022-08-16T12:57:36.625Z,25.54
2022-08-16T13:00:26.273Z,25.51
2022-08-16T13:02:53.999Z,25.60
2022-08-16T13:05:20.666Z,25.63
2022-08-16T13:07:51.897Z,25.73
2022-08-16T13:10:37.704Z,25.80
2022-08-16T13:13:06.931Z,25.84
2022-08-16T13:15:51.527Z,25.90
2022-08-16T13:18:34.029Z,25.95
2022-08-16T13:21:06.110Z,26.00
2022-08-16T13:23:35.646Z,26.03
2022-08-16T13:26:05.165Z,26.04
2022-08-16T13:28:35.765Z,26.04
2022-08-16T13:31:05.553Z,25.98
2022-08-16T13:33:38.407Z,26.01
2022-08-16T13:36:26.117Z,26.02
2022-08-16T13:38:59.887Z,26.13
2022-08-16T13:41:30.282Z,26.15
2022-08-16T13:44:00.422Z,26.18
2022-08-16T13:46:28.751Z,26.24
2022-08-16T13:48:57.103Z,26.23
2022-08-16T13:51:29.405Z,26.24
2022-08-16T13:54:03.613Z,26.29
2022-08-16T13:56:39.515Z,26.32
2022-08-16T13:59:16.506Z,26.33
2022-08-16T14:01:55.257Z,26.33
2022-08-16T14:04:27.985Z,26.30
2022-08-16T14:06:58.488Z,26.27
2022-08-16T14:09:27.039Z,26.31
2022-08-16T14:12:44.366Z,26.24
2022-08-16T14:15:13.837Z,26.25
2022-08-16T14:18:30.903Z,26.23
2022-08-16T14:20:28.203Z,26.19
2022-08-16T14:22:58.074Z,26.23
2022-08-16T14:25:25.675Z,26.30
2022-08-16T14:27:54.677Z,26.32
2022-08-16T14:30:22.197Z,26.36
2022-08-16T14:32:49.856Z,26.42
2022-08-16T14:35:21.653Z,26.48
2022-08-16T14:37:57.121Z,26.52
2022-08-16T14:40:24.246Z,26.55
2022-08-16T14:42:55.824Z,26.57
2022-08-16T14:45:26.255Z,26.62
2022-08-16T14:47:53.844Z,26.66
2022-08-16T14:50:24.007Z,26.69
2022-08-16T14:53:04.027Z,26.70
2022-08-16T14:55:32.546Z,26.78
2022-08-16T14:57:59.392Z,26.80
2022-08-16T15:00:33.233Z,26.82
2022-08-16T15:03:26.761Z,26.76
2022-08-16T15:05:54.049Z,26.84
2022-08-16T15:08:20.950Z,26.87
2022-08-16T15:11:02.912Z,26.89
2022-08-16T15:13:29.654Z,26.92
2022-08-16T15:16:02.986Z,26.93
2022-08-16T15:18:31.933Z,26.95
2022-08-16T15:21:03.676Z,26.96
2022-08-16T15:23:33.693Z,27.01
2022-08-16T15:26:02.824Z,27.04
2022-08-16T15:28:32.846Z,27.03
2022-08-16T15:31:06.038Z,27.02
2022-08-16T15:33:38.971Z,27.02
2022-08-16T15:36:12.229Z,27.03
2022-08-16T15:38:58.191Z,27.02
2022-08-16T15:42:41.519Z,26.90
2022-08-16T15:45:13.854Z,26.92
2022-08-16T15:47:40.574Z,26.90
2022-08-16T15:50:15.607Z,26.91
2022-08-16T15:52:42.883Z,26.89
2022-08-16T16:04:08.325Z,26.72
2022-08-16T16:06:35.041Z,26.73
2022-08-16T16:09:02.310Z,26.70
2022-08-16T16:11:28.968Z,26.70
2022-08-16T16:13:57.860Z,26.70
2022-08-16T16:16:24.632Z,26.69
2022-08-16T16:18:52.003Z,26.70
2022-08-16T16:21:20.239Z,26.71
2022-08-16T16:23:55.011Z,26.69
2022-08-16T16:26:24.989Z,26.67
2022-08-16T16:29:08.784Z,26.65
2022-08-16T16:31:43.956Z,26.63
2022-08-16T16:34:32.375Z,26.63
2022-08-16T16:37:02.685Z,26.61
2022-08-16T16:39:32.728Z,26.61
2022-08-16T16:41:59.757Z,26.58
2022-08-16T16:44:31.918Z,26.58
2022-08-16T16:47:00.667Z,26.56
2022-08-16T16:49:27.438Z,26.55
2022-08-16T16:51:55.240Z,26.53
2022-08-16T16:54:35.395Z,26.51
2022-08-16T16:57:04.150Z,26.51
2022-08-16T16:59:30.843Z,26.49
2022-08-16T17:02:38.406Z,26.48
2022-08-16T17:04:47.287Z,26.46
2022-08-16T17:07:14.216Z,26.45
2022-08-16T17:10:09.591Z,26.33
2022-08-16T17:12:47.185Z,26.41
2022-08-16T17:15:15.084Z,26.41
2022-08-16T17:18:00.287Z,26.40
2022-08-16T17:20:29.119Z,26.38
2022-08-16T17:22:56.454Z,26.37
2022-08-16T17:25:26.525Z,26.35
2022-08-16T17:28:59.010Z,26.35
2022-08-16T17:30:51.744Z,26.32
2022-08-16T17:33:20.884Z,26.31
2022-08-16T17:35:55.303Z,26.31
2022-08-16T17:38:39.031Z,26.31
2022-08-16T17:41:10.989Z,26.28
2022-08-16T17:43:44.456Z,26.27
2022-08-16T17:46:50.831Z,26.26
2022-08-16T17:48:58.618Z,26.26
2022-08-16T17:51:27.547Z,26.25
2022-08-16T17:53:54.343Z,26.24
2022-08-16T17:56:21.281Z,26.24
2022-08-16T17:58:47.991Z,26.20
2022-08-16T18:01:14.789Z,26.18
2022-08-16T18:04:06.804Z,26.11
2022-08-16T18:06:33.587Z,26.12
2022-08-16T18:09:03.418Z,26.10
2022-08-16T18:11:33.672Z,26.10
2022-08-16T18:14:00.418Z,26.07
2022-08-16T18:16:27.074Z,26.06
2022-08-16T18:18:53.768Z,26.06
2022-08-16T18:21:39.235Z,26.05
2022-08-16T18:24:06.156Z,26.01
2022-08-16T18:26:33.174Z,25.99
2022-08-16T18:28:59.862Z,25.95
2022-08-16T18:31:26.701Z,25.89
2022-08-16T18:33:55.958Z,25.84
2022-08-16T18:40:56.081Z,25.66
2022-08-16T18:44:22.400Z,25.65
2022-08-16T18:46:14.964Z,25.60
2022-08-16T18:48:41.681Z,25.61
2022-08-16T18:51:12.909Z,25.54
2022-08-16T18:55:14.225Z,25.40
2022-08-16T18:57:41.857Z,25.46
2022-08-16T19:00:12.311Z,25.42
2022-08-16T19:02:57.966Z,25.34
2022-08-16T19:05:29.153Z,25.33
2022-08-16T19:07:55.813Z,25.31
2022-08-16T19:10:23.620Z,25.30
2022-08-16T19:12:50.456Z,25.27
2022-08-16T19:15:21.222Z,25.25
2022-08-16T19:17:47.994Z,25.23
2022-08-16T19:20:17.378Z,25.19
2022-08-16T19:23:04.613Z,25.18
2022-08-16T19:25:46.352Z,25.09
2022-08-16T19:28:50.755Z,24.99
2022-08-16T19:31:25.483Z,24.96
2022-08-16T19:33:55.384Z,25.02
2022-08-16T19:36:31.140Z,24.97
2022-08-16T19:39:05.405Z,24.99
2022-08-16T19:41:35.211Z,24.97
2022-08-16T19:44:02.143Z,24.90
2022-08-16T19:46:28.823Z,24.89
2022-08-16T19:48:56.674Z,24.88
2022-08-16T19:51:23.338Z,24.84
2022-08-16T19:53:50.005Z,24.80
2022-08-16T19:56:16.670Z,24.77
2022-08-16T19:59:01.961Z,24.73
2022-08-16T20:01:30.104Z,24.70
2022-08-16T20:03:56.856Z,24.66
2022-08-16T20:06:37.730Z,24.64
2022-08-16T20:09:06.060Z,24.58
2022-08-16T20:11:33.159Z,24.58
2022-08-16T20:13:59.950Z,24.57
2022-08-16T20:16:26.630Z,24.57
2022-08-16T20:18:53.347Z,24.63
2022-08-16T20:21:20.046Z,24.56
2022-08-16T20:23:46.751Z,24.53
2022-08-16T20:26:13.470Z,24.48
2022-08-16T20:28:54.283Z,24.47
2022-08-16T20:31:22.500Z,24.39
2022-08-16T20:33:50.300Z,24.42
2022-08-16T20:36:17.076Z,24.37
2022-08-16T20:38:46.664Z,24.39
2022-08-16T20:41:13.607Z,24.45
2022-08-16T20:43:40.709Z,24.48
2022-08-16T20:46:07.597Z,24.45
2022-08-16T20:48:34.243Z,24.47
2022-08-16T20:51:01.047Z,24.55
2022-08-16T20:53:27.738Z,24.52
2022-08-16T20:55:54.484Z,24.54
2022-08-16T20:58:21.129Z,24.50
2022-08-16T21:00:47.960Z,24.46
2022-08-16T21:03:14.969Z,24.41
2022-08-16T21:05:42.723Z,24.36
2022-08-16T21:08:32.833Z,24.32
2022-08-16T21:10:56.862Z,24.33
2022-08-16T21:13:25.557Z,24.36
2022-08-16T21:15:52.304Z,24.34
2022-08-16T21:18:18.958Z,24.27
2022-08-16T21:20:45.601Z,24.25
2022-08-16T21:23:12.290Z,24.24
2022-08-16T21:25:42.135Z,24.31
2022-08-16T21:28:38.845Z,24.30
2022-08-16T21:31:09.707Z,24.21
2022-08-16T21:33:36.811Z,24.17
2022-08-16T21:36:03.679Z,24.13
2022-08-16T21:38:31.115Z,24.07
2022-08-16T21:40:59.283Z,24.12
2022-08-16T21:43:31.715Z,24.16
2022-08-16T21:45:59.914Z,23.70
2022-08-16T21:48:34.752Z,24.05
2022-08-16T21:51:09.378Z,23.99
2022-08-16T21:53:36.221Z,24.03
2022-08-16T21:56:05.214Z,24.00
2022-08-16T21:58:32.507Z,24.02
2022-08-16T22:01:00.331Z,23.97
2022-08-16T22:03:27.245Z,23.91
2022-08-16T22:06:11.678Z,23.87
2022-08-16T22:08:50.470Z,23.69
2022-08-16T22:11:25.129Z,23.61
2022-08-16T22:13:58.926Z,23.75
2022-08-16T22:16:32.206Z,23.68
2022-08-16T22:18:59.565Z,23.69
2022-08-16T22:21:26.407Z,23.68
2022-08-16T22:23:55.129Z,23.69
2022-08-16T22:26:29.977Z,23.57
2022-08-16T22:28:59.399Z,23.63
2022-08-16T22:31:27.308Z,23.60
2022-08-16T22:33:54.861Z,23.58
2022-08-16T22:36:21.562Z,23.53
2022-08-16T22:38:55.737Z,23.50
2022-08-16T22:41:26.161Z,23.40
2022-08-16T22:43:53.088Z,23.40
2022-08-16T22:46:19.833Z,23.36
2022-08-16T22:48:49.892Z,23.38
2022-08-16T22:51:17.090Z,23.36
2022-08-16T22:53:43.770Z,23.28
2022-08-16T22:56:10.421Z,23.28
2022-08-16T22:58:37.453Z,23.26
2022-08-16T23:01:06.662Z,23.21
2022-08-16T23:03:33.561Z,23.21
2022-08-16T23:06:00.736Z,23.12
2022-08-16T23:08:39.541Z,23.17
2022-08-16T23:11:13.348Z,23.05
2022-08-16T23:13:50.080Z,23.19
2022-08-16T23:16:33.700Z,23.10
2022-08-16T23:19:06.875Z,22.95
2022-08-16T23:21:33.822Z,23.00
2022-08-16T23:24:01.050Z,22.98
2022-08-16T23:26:44.235Z,23.03
2022-08-16T23:29:24.451Z,22.94
2022-08-16T23:31:57.929Z,22.90
2022-08-16T23:34:26.650Z,22.97
2022-08-16T23:36:53.369Z,23.04
2022-08-16T23:39:20.040Z,22.95
2022-08-16T23:41:46.685Z,22.95
2022-08-16T23:44:56.779Z,22.96
2022-08-16T23:47:01.119Z,22.85
2022-08-16T23:50:02.532Z,22.81
2022-08-16T23:52:14.563Z,22.82
2022-08-16T23:54:41.266Z,22.80
2022-08-16T23:57:08.347Z,22.72
2022-08-16T23:59:52.224Z,22.70
